sensor_id;sensor_type;location;lat;lon;timestamp;temperature;humidity
316;DHT22;14128;48.686;9.738;2023-04-16T00:01:16;7.00;1.00
316;DHT22;14128;48.686;9.738;2023-04-16T00:03:42;7.10;99.90
316;DHT22;14128;48.686;9.738;2023-04-16T00:06:10;7.10;1.00
316;DHT22;14128;48.686;9.738;2023-04-16T00:08:37;7.10;43.60
316;DHT22;14128;48.686;9.738;2023-04-16T00:11:04;7.10;1.00
316;DHT22;14128;48.686;9.738;2023-04-16T00:13:32;7.10;1.00
316;DHT22;14128;48.686;9.738;2023-04-16T00:16:00;7.10;1.60
316;DHT22;14128;48.686;9.738;2023-04-16T00:18:26;7.10;99.90
316;DHT22;14128;48.686;9.738;2023-04-16T00:20:53;7.10;7.00
316;DHT22;14128;48.686;9.738;2023-04-16T00:23:20;7.10;99.90
316;DHT22;14128;48.686;9.738;2023-04-16T00:25:47;7.10;99.90
316;DHT22;14128;48.686;9.738;2023-04-16T00:28:13;7.10;1.00
316;DHT22;14128;48.686;9.738;2023-04-16T00:30:42;7.10;99.90
316;DHT22;14128;48.686;9.738;2023-04-16T00:33:08;7.20;99.90
316;DHT22;14128;48.686;9.738;2023-04-16T00:35:35;7.20;28.50
316;DHT22;14128;48.686;9.738;2023-04-16T00:38:02;7.20;99.90
316;DHT22;14128;48.686;9.738;2023-04-16T00:40:29;7.20;1.00
316;DHT22;14128;48.686;9.738;2023-04-16T00:42:56;7.20;1.00
316;DHT22;14128;48.686;9.738;2023-04-16T00:45:22;7.20;99.90
316;DHT22;14128;48.686;9.738;2023-04-16T00:47:50;7.20;99.90
316;DHT22;14128;48.686;9.738;2023-04-16T00:50:17;7.20;99.90
316;DHT22;14128;48.686;9.738;2023-04-16T00:52:45;7.20;99.90
316;DHT22;14128;48.686;9.738;2023-04-16T00:55:12;7.20;99.90
316;DHT22;14128;48.686;9.738;2023-04-16T00:57:42;7.20;99.90
316;DHT22;14128;48.686;9.738;2023-04-16T01:00:09;7.20;99.90
316;DHT22;14128;48.686;9.738;2023-04-16T01:02:36;7.20;48.70
316;DHT22;14128;48.686;9.738;2023-04-16T01:05:05;7.20;99.90
316;DHT22;14128;48.686;9.738;2023-04-16T01:07:32;7.20;38.90
316;DHT22;14128;48.686;9.738;2023-04-16T01:09:59;7.20;1.00
316;DHT22;14128;48.686;9.738;2023-04-16T01:12:26;7.20;6.90
316;DHT22;14128;48.686;9.738;2023-04-16T01:14:53;7.30;1.00
316;DHT22;14128;48.686;9.738;2023-04-16T01:17:20;7.20;37.50
316;DHT22;14128;48.686;9.738;2023-04-16T01:19:46;7.30;59.50
316;DHT22;14128;48.686;9.738;2023-04-16T01:22:14;7.20;1.00
316;DHT22;14128;48.686;9.738;2023-04-16T01:24:41;7.20;99.90
316;DHT22;14128;48.686;9.738;2023-04-16T01:27:08;7.20;31.00
316;DHT22;14128;48.686;9.738;2023-04-16T01:29:35;7.20;87.40
316;DHT22;14128;48.686;9.738;2023-04-16T01:32:02;7.20;84.10
316;DHT22;14128;48.686;9.738;2023-04-16T01:34:28;7.20;58.60
316;DHT22;14128;48.686;9.738;2023-04-16T01:36:55;7.20;1.00
316;DHT22;14128;48.686;9.738;2023-04-16T01:39:23;7.20;1.00
316;DHT22;14128;48.686;9.738;2023-04-16T01:41:50;7.20;1.00
316;DHT22;14128;48.686;9.738;2023-04-16T01:44:17;7.20;1.00
316;DHT22;14128;48.686;9.738;2023-04-16T01:46:44;7.20;1.00
316;DHT22;14128;48.686;9.738;2023-04-16T01:49:10;7.20;99.90
316;DHT22;14128;48.686;9.738;2023-04-16T01:51:37;7.20;99.90
316;DHT22;14128;48.686;9.738;2023-04-16T01:54:04;7.20;30.00
316;DHT22;14128;48.686;9.738;2023-04-16T01:56:32;7.20;1.00
316;DHT22;14128;48.686;9.738;2023-04-16T01:58:59;7.20;82.40
316;DHT22;14128;48.686;9.738;2023-04-16T02:01:26;7.30;1.00
316;DHT22;14128;48.686;9.738;2023-04-16T02:03:53;7.20;99.90
316;DHT22;14128;48.686;9.738;2023-04-16T02:06:20;7.20;99.90
316;DHT22;14128;48.686;9.738;2023-04-16T02:08:47;7.20;99.90
316;DHT22;14128;48.686;9.738;2023-04-16T02:11:14;7.20;99.90
316;DHT22;14128;48.686;9.738;2023-04-16T02:13:42;7.20;16.90
316;DHT22;14128;48.686;9.738;2023-04-16T02:16:09;7.20;1.00
316;DHT22;14128;48.686;9.738;2023-04-16T02:18:35;7.20;2.00
316;DHT22;14128;48.686;9.738;2023-04-16T02:21:02;7.20;99.90
316;DHT22;14128;48.686;9.738;2023-04-16T02:23:31;7.20;99.90
316;DHT22;14128;48.686;9.738;2023-04-16T02:25:57;7.20;99.90
316;DHT22;14128;48.686;9.738;2023-04-16T02:28:25;7.20;99.90
316;DHT22;14128;48.686;9.738;2023-04-16T02:30:53;7.20;23.20
316;DHT22;14128;48.686;9.738;2023-04-16T02:33:20;7.20;99.90
316;DHT22;14128;48.686;9.738;2023-04-16T02:35:50;7.20;42.20
316;DHT22;14128;48.686;9.738;2023-04-16T02:38:17;7.20;99.90
316;DHT22;14128;48.686;9.738;2023-04-16T02:40:44;7.20;99.90
316;DHT22;14128;48.686;9.738;2023-04-16T02:43:11;7.20;99.90
316;DHT22;14128;48.686;9.738;2023-04-16T02:45:37;7.20;99.90
316;DHT22;14128;48.686;9.738;2023-04-16T02:48:06;7.20;99.90
316;DHT22;14128;48.686;9.738;2023-04-16T02:50:34;7.20;1.40
316;DHT22;14128;48.686;9.738;2023-04-16T02:53:00;7.10;1.40
316;DHT22;14128;48.686;9.738;2023-04-16T02:55:28;7.10;1.40
316;DHT22;14128;48.686;9.738;2023-04-16T02:57:55;7.10;1.40
316;DHT22;14128;48.686;9.738;2023-04-16T03:00:22;7.10;1.40
316;DHT22;14128;48.686;9.738;2023-04-16T03:02:49;7.10;1.40
316;DHT22;14128;48.686;9.738;2023-04-16T03:05:17;7.10;1.40
316;DHT22;14128;48.686;9.738;2023-04-16T03:07:44;7.20;1.40
316;DHT22;14128;48.686;9.738;2023-04-16T03:10:11;7.10;1.40
316;DHT22;14128;48.686;9.738;2023-04-16T03:12:38;7.10;1.40
316;DHT22;14128;48.686;9.738;2023-04-16T03:15:06;7.10;1.40
316;DHT22;14128;48.686;9.738;2023-04-16T03:17:33;7.10;1.40
316;DHT22;14128;48.686;9.738;2023-04-16T03:20:00;7.10;1.40
316;DHT22;14128;48.686;9.738;2023-04-16T03:22:28;7.10;1.40
316;DHT22;14128;48.686;9.738;2023-04-16T03:24:55;7.10;1.40
316;DHT22;14128;48.686;9.738;2023-04-16T03:27:21;7.10;1.40
316;DHT22;14128;48.686;9.738;2023-04-16T03:29:48;7.10;1.40
316;DHT22;14128;48.686;9.738;2023-04-16T03:32:15;7.10;1.40
316;DHT22;14128;48.686;9.738;2023-04-16T03:34:42;7.10;1.40
316;DHT22;14128;48.686;9.738;2023-04-16T03:37:09;7.10;1.40
316;DHT22;14128;48.686;9.738;2023-04-16T03:39:38;7.10;1.40
316;DHT22;14128;48.686;9.738;2023-04-16T03:42:05;7.10;1.40
316;DHT22;14128;48.686;9.738;2023-04-16T03:44:32;7.10;1.40
316;DHT22;14128;48.686;9.738;2023-04-16T03:46:59;7.10;1.40
316;DHT22;14128;48.686;9.738;2023-04-16T03:49:26;7.10;1.40
316;DHT22;14128;48.686;9.738;2023-04-16T03:51:52;7.10;1.40
316;DHT22;14128;48.686;9.738;2023-04-16T03:54:19;7.10;1.40
316;DHT22;14128;48.686;9.738;2023-04-16T03:56:47;7.10;1.40
316;DHT22;14128;48.686;9.738;2023-04-16T03:59:14;7.10;1.40
316;DHT22;14128;48.686;9.738;2023-04-16T04:01:41;7.10;1.40
316;DHT22;14128;48.686;9.738;2023-04-16T04:04:08;7.10;1.40
316;DHT22;14128;48.686;9.738;2023-04-16T04:06:35;7.10;1.40
316;DHT22;14128;48.686;9.738;2023-04-16T04:09:02;7.10;1.40
316;DHT22;14128;48.686;9.738;2023-04-16T04:11:29;7.10;1.40
316;DHT22;14128;48.686;9.738;2023-04-16T04:13:57;7.10;1.40
316;DHT22;14128;48.686;9.738;2023-04-16T04:16:24;7.10;1.40
316;DHT22;14128;48.686;9.738;2023-04-16T04:18:50;7.10;1.40
316;DHT22;14128;48.686;9.738;2023-04-16T04:21:17;7.10;1.40
316;DHT22;14128;48.686;9.738;2023-04-16T04:23:44;7.10;1.40
316;DHT22;14128;48.686;9.738;2023-04-16T04:26:11;7.10;1.40
316;DHT22;14128;48.686;9.738;2023-04-16T04:28:37;7.10;1.40
316;DHT22;14128;48.686;9.738;2023-04-16T04:31:05;7.10;1.40
316;DHT22;14128;48.686;9.738;2023-04-16T04:33:32;7.10;1.40
316;DHT22;14128;48.686;9.738;2023-04-16T04:35:59;7.10;1.40
316;DHT22;14128;48.686;9.738;2023-04-16T04:38:26;7.10;1.40
316;DHT22;14128;48.686;9.738;2023-04-16T04:40:53;7.10;99.90
316;DHT22;14128;48.686;9.738;2023-04-16T04:43:20;7.10;1.40
316;DHT22;14128;48.686;9.738;2023-04-16T04:45:47;7.10;1.40
316;DHT22;14128;48.686;9.738;2023-04-16T04:48:15;7.10;1.40
316;DHT22;14128;48.686;9.738;2023-04-16T04:50:43;7.10;1.40
316;DHT22;14128;48.686;9.738;2023-04-16T04:53:10;7.10;1.40
316;DHT22;14128;48.686;9.738;2023-04-16T04:55:39;7.10;1.40
316;DHT22;14128;48.686;9.738;2023-04-16T04:58:06;7.10;1.40
316;DHT22;14128;48.686;9.738;2023-04-16T05:00:34;7.10;1.40
316;DHT22;14128;48.686;9.738;2023-04-16T05:03:02;7.10;1.40
316;DHT22;14128;48.686;9.738;2023-04-16T05:05:30;7.10;1.40
316;DHT22;14128;48.686;9.738;2023-04-16T05:07:57;7.10;1.40
316;DHT22;14128;48.686;9.738;2023-04-16T05:10:25;7.20;1.40
316;DHT22;14128;48.686;9.738;2023-04-16T05:12:52;7.10;1.40
316;DHT22;14128;48.686;9.738;2023-04-16T05:15:19;7.10;1.40
316;DHT22;14128;48.686;9.738;2023-04-16T05:17:46;7.20;1.40
316;DHT22;14128;48.686;9.738;2023-04-16T05:20:13;7.20;1.40
316;DHT22;14128;48.686;9.738;2023-04-16T05:22:41;7.20;1.40
316;DHT22;14128;48.686;9.738;2023-04-16T05:25:08;7.20;1.40
316;DHT22;14128;48.686;9.738;2023-04-16T05:27:36;7.20;1.40
316;DHT22;14128;48.686;9.738;2023-04-16T05:30:03;7.20;1.40
316;DHT22;14128;48.686;9.738;2023-04-16T05:32:30;7.20;1.40
316;DHT22;14128;48.686;9.738;2023-04-16T05:34:57;7.30;1.40
316;DHT22;14128;48.686;9.738;2023-04-16T05:37:23;7.20;1.40
316;DHT22;14128;48.686;9.738;2023-04-16T05:39:51;7.30;1.40
316;DHT22;14128;48.686;9.738;2023-04-16T05:42:18;7.30;1.40
316;DHT22;14128;48.686;9.738;2023-04-16T05:44:45;7.30;1.40
316;DHT22;14128;48.686;9.738;2023-04-16T05:47:12;7.30;1.40
316;DHT22;14128;48.686;9.738;2023-04-16T05:49:39;7.30;1.40
316;DHT22;14128;48.686;9.738;2023-04-16T05:52:05;7.20;1.40
316;DHT22;14128;48.686;9.738;2023-04-16T05:54:32;7.30;1.40
316;DHT22;14128;48.686;9.738;2023-04-16T05:57:00;7.30;1.40
316;DHT22;14128;48.686;9.738;2023-04-16T05:59:27;7.30;1.40
316;DHT22;14128;48.686;9.738;2023-04-16T06:01:55;7.30;1.40
316;DHT22;14128;48.686;9.738;2023-04-16T06:04:22;7.30;1.40
316;DHT22;14128;48.686;9.738;2023-04-16T06:06:48;7.40;1.40
316;DHT22;14128;48.686;9.738;2023-04-16T06:09:15;7.40;1.40
316;DHT22;14128;48.686;9.738;2023-04-16T06:11:43;7.40;1.40
316;DHT22;14128;48.686;9.738;2023-04-16T06:14:11;7.30;1.40
316;DHT22;14128;48.686;9.738;2023-04-16T06:16:38;7.40;1.40
316;DHT22;14128;48.686;9.738;2023-04-16T06:19:05;7.40;1.40
316;DHT22;14128;48.686;9.738;2023-04-16T06:21:32;7.40;1.40
316;DHT22;14128;48.686;9.738;2023-04-16T06:23:59;7.40;1.40
316;DHT22;14128;48.686;9.738;2023-04-16T06:26:26;7.40;1.40
316;DHT22;14128;48.686;9.738;2023-04-16T06:28:52;7.40;1.40
316;DHT22;14128;48.686;9.738;2023-04-16T06:31:20;7.50;1.40
316;DHT22;14128;48.686;9.738;2023-04-16T06:33:47;7.50;1.40
316;DHT22;14128;48.686;9.738;2023-04-16T06:36:14;7.50;1.40
316;DHT22;14128;48.686;9.738;2023-04-16T06:38:42;7.40;1.40
316;DHT22;14128;48.686;9.738;2023-04-16T06:41:09;7.40;1.40
316;DHT22;14128;48.686;9.738;2023-04-16T06:43:35;7.40;1.40
316;DHT22;14128;48.686;9.738;2023-04-16T06:46:02;7.40;1.40
316;DHT22;14128;48.686;9.738;2023-04-16T06:48:30;7.50;1.40
316;DHT22;14128;48.686;9.738;2023-04-16T06:50:57;7.50;1.40
316;DHT22;14128;48.686;9.738;2023-04-16T06:53:24;7.50;1.40
316;DHT22;14128;48.686;9.738;2023-04-16T06:55:51;7.50;1.40
316;DHT22;14128;48.686;9.738;2023-04-16T06:58:18;7.50;1.40
316;DHT22;14128;48.686;9.738;2023-04-16T07:00:44;7.50;1.40
316;DHT22;14128;48.686;9.738;2023-04-16T07:03:11;7.60;1.40
316;DHT22;14128;48.686;9.738;2023-04-16T07:05:39;7.70;1.40
316;DHT22;14128;48.686;9.738;2023-04-16T07:08:06;7.70;1.40
316;DHT22;14128;48.686;9.738;2023-04-16T07:10:33;7.70;1.40
316;DHT22;14128;48.686;9.738;2023-04-16T07:13:00;7.70;1.40
316;DHT22;14128;48.686;9.738;2023-04-16T07:15:27;7.70;1.40
316;DHT22;14128;48.686;9.738;2023-04-16T07:17:54;7.70;1.40
316;DHT22;14128;48.686;9.738;2023-04-16T07:20:20;7.70;1.40
316;DHT22;14128;48.686;9.738;2023-04-16T07:22:49;7.70;1.40
316;DHT22;14128;48.686;9.738;2023-04-16T07:25:15;7.70;1.40
316;DHT22;14128;48.686;9.738;2023-04-16T07:27:42;7.70;1.40
316;DHT22;14128;48.686;9.738;2023-04-16T07:30:10;7.70;1.40
316;DHT22;14128;48.686;9.738;2023-04-16T07:32:36;7.70;1.40
316;DHT22;14128;48.686;9.738;2023-04-16T07:35:04;7.70;1.40
316;DHT22;14128;48.686;9.738;2023-04-16T07:37:31;7.70;1.40
316;DHT22;14128;48.686;9.738;2023-04-16T07:39:59;7.60;1.40
316;DHT22;14128;48.686;9.738;2023-04-16T07:42:26;7.70;1.40
316;DHT22;14128;48.686;9.738;2023-04-16T07:44:54;7.70;1.40
316;DHT22;14128;48.686;9.738;2023-04-16T07:47:21;7.70;1.40
316;DHT22;14128;48.686;9.738;2023-04-16T07:49:50;7.70;1.40
316;DHT22;14128;48.686;9.738;2023-04-16T07:52:17;7.70;1.40
316;DHT22;14128;48.686;9.738;2023-04-16T07:54:44;7.70;1.40
316;DHT22;14128;48.686;9.738;2023-04-16T07:57:12;7.70;1.40
316;DHT22;14128;48.686;9.738;2023-04-16T07:59:40;7.70;1.40
316;DHT22;14128;48.686;9.738;2023-04-16T08:02:08;7.70;1.40
316;DHT22;14128;48.686;9.738;2023-04-16T08:04:36;7.80;1.40
316;DHT22;14128;48.686;9.738;2023-04-16T08:07:03;7.90;1.40
316;DHT22;14128;48.686;9.738;2023-04-16T08:09:30;8.20;1.40
316;DHT22;14128;48.686;9.738;2023-04-16T08:11:58;8.30;1.40
316;DHT22;14128;48.686;9.738;2023-04-16T08:14:27;8.30;1.40
316;DHT22;14128;48.686;9.738;2023-04-16T08:16:53;8.30;1.40
316;DHT22;14128;48.686;9.738;2023-04-16T08:19:20;8.30;1.40
316;DHT22;14128;48.686;9.738;2023-04-16T08:21:47;8.40;1.40
316;DHT22;14128;48.686;9.738;2023-04-16T08:24:14;8.40;1.40
316;DHT22;14128;48.686;9.738;2023-04-16T08:26:41;8.30;1.40
316;DHT22;14128;48.686;9.738;2023-04-16T08:29:07;8.40;1.40
316;DHT22;14128;48.686;9.738;2023-04-16T08:31:35;8.50;1.40
316;DHT22;14128;48.686;9.738;2023-04-16T08:34:02;8.60;1.40
316;DHT22;14128;48.686;9.738;2023-04-16T08:36:29;8.60;1.40
316;DHT22;14128;48.686;9.738;2023-04-16T08:38:56;8.50;1.40
316;DHT22;14128;48.686;9.738;2023-04-16T08:41:24;8.50;1.40
316;DHT22;14128;48.686;9.738;2023-04-16T08:43:54;8.50;1.40
316;DHT22;14128;48.686;9.738;2023-04-16T08:46:24;8.50;1.40
316;DHT22;14128;48.686;9.738;2023-04-16T08:48:53;8.60;1.40
316;DHT22;14128;48.686;9.738;2023-04-16T08:51:21;8.60;1.40
316;DHT22;14128;48.686;9.738;2023-04-16T08:53:51;8.60;99.90
316;DHT22;14128;48.686;9.738;2023-04-16T08:56:20;8.70;1.40
316;DHT22;14128;48.686;9.738;2023-04-16T08:58:50;8.70;1.40
316;DHT22;14128;48.686;9.738;2023-04-16T09:01:18;8.70;1.40
316;DHT22;14128;48.686;9.738;2023-04-16T09:03:47;8.50;1.40
316;DHT22;14128;48.686;9.738;2023-04-16T09:06:15;8.50;1.40
316;DHT22;14128;48.686;9.738;2023-04-16T09:08:43;8.40;1.40
316;DHT22;14128;48.686;9.738;2023-04-16T09:11:12;8.30;1.40
316;DHT22;14128;48.686;9.738;2023-04-16T09:13:39;8.10;1.40
316;DHT22;14128;48.686;9.738;2023-04-16T09:16:06;8.10;1.40
316;DHT22;14128;48.686;9.738;2023-04-16T09:18:33;8.00;1.40
316;DHT22;14128;48.686;9.738;2023-04-16T09:21:01;8.10;1.40
316;DHT22;14128;48.686;9.738;2023-04-16T09:23:30;8.10;1.40
316;DHT22;14128;48.686;9.738;2023-04-16T09:25:58;8.10;1.40
316;DHT22;14128;48.686;9.738;2023-04-16T09:28:38;8.10;1.40
316;DHT22;14128;48.686;9.738;2023-04-16T09:31:10;8.20;1.40
316;DHT22;14128;48.686;9.738;2023-04-16T09:33:37;8.30;1.40
316;DHT22;14128;48.686;9.738;2023-04-16T09:36:04;8.30;1.40
316;DHT22;14128;48.686;9.738;2023-04-16T09:38:49;8.30;1.40
316;DHT22;14128;48.686;9.738;2023-04-16T09:41:16;8.30;1.40
316;DHT22;14128;48.686;9.738;2023-04-16T09:43:54;8.20;1.40
316;DHT22;14128;48.686;9.738;2023-04-16T09:46:22;8.10;1.40
316;DHT22;14128;48.686;9.738;2023-04-16T09:48:49;8.00;1.40
316;DHT22;14128;48.686;9.738;2023-04-16T09:51:16;8.00;99.90
316;DHT22;14128;48.686;9.738;2023-04-16T09:53:43;8.10;99.90
316;DHT22;14128;48.686;9.738;2023-04-16T09:56:11;8.10;99.90
316;DHT22;14128;48.686;9.738;2023-04-16T09:58:38;8.10;99.90
316;DHT22;14128;48.686;9.738;2023-04-16T10:01:07;8.00;99.90
316;DHT22;14128;48.686;9.738;2023-04-16T10:03:36;7.90;99.90
316;DHT22;14128;48.686;9.738;2023-04-16T10:06:13;7.90;99.90
316;DHT22;14128;48.686;9.738;2023-04-16T10:08:42;7.90;99.90
316;DHT22;14128;48.686;9.738;2023-04-16T10:11:10;7.90;99.90
316;DHT22;14128;48.686;9.738;2023-04-16T10:13:37;7.90;99.90
316;DHT22;14128;48.686;9.738;2023-04-16T10:16:06;7.80;99.90
316;DHT22;14128;48.686;9.738;2023-04-16T10:18:35;7.90;99.90
316;DHT22;14128;48.686;9.738;2023-04-16T10:21:03;7.90;99.90
316;DHT22;14128;48.686;9.738;2023-04-16T10:23:31;7.80;99.90
316;DHT22;14128;48.686;9.738;2023-04-16T10:25:58;7.80;99.90
316;DHT22;14128;48.686;9.738;2023-04-16T10:28:27;7.90;99.90
316;DHT22;14128;48.686;9.738;2023-04-16T10:30:56;7.80;99.90
316;DHT22;14128;48.686;9.738;2023-04-16T10:33:25;7.80;1.00
316;DHT22;14128;48.686;9.738;2023-04-16T10:36:06;7.80;92.60
316;DHT22;14128;48.686;9.738;2023-04-16T10:38:34;7.80;99.90
316;DHT22;14128;48.686;9.738;2023-04-16T10:41:04;7.90;1.00
316;DHT22;14128;48.686;9.738;2023-04-16T10:43:36;7.90;99.90
316;DHT22;14128;48.686;9.738;2023-04-16T10:46:20;8.00;6.00
316;DHT22;14128;48.686;9.738;2023-04-16T10:48:49;8.00;4.50
316;DHT22;14128;48.686;9.738;2023-04-16T10:51:31;8.00;99.90
316;DHT22;14128;48.686;9.738;2023-04-16T10:54:02;7.90;99.90
316;DHT22;14128;48.686;9.738;2023-04-16T10:56:32;7.90;99.90
316;DHT22;14128;48.686;9.738;2023-04-16T10:59:03;7.90;99.90
316;DHT22;14128;48.686;9.738;2023-04-16T11:01:32;7.90;99.90
316;DHT22;14128;48.686;9.738;2023-04-16T11:04:00;7.80;99.90
316;DHT22;14128;48.686;9.738;2023-04-16T11:06:27;7.80;99.90
316;DHT22;14128;48.686;9.738;2023-04-16T11:08:56;7.80;99.90
316;DHT22;14128;48.686;9.738;2023-04-16T11:11:23;7.80;99.90
316;DHT22;14128;48.686;9.738;2023-04-16T11:13:54;7.80;99.90
316;DHT22;14128;48.686;9.738;2023-04-16T11:16:24;7.80;99.90
316;DHT22;14128;48.686;9.738;2023-04-16T11:18:53;7.80;99.90
316;DHT22;14128;48.686;9.738;2023-04-16T11:21:21;7.70;99.90
316;DHT22;14128;48.686;9.738;2023-04-16T11:23:50;7.70;99.90
316;DHT22;14128;48.686;9.738;2023-04-16T11:26:24;7.70;99.90
316;DHT22;14128;48.686;9.738;2023-04-16T11:28:52;7.70;99.90
316;DHT22;14128;48.686;9.738;2023-04-16T11:31:20;7.70;99.90
316;DHT22;14128;48.686;9.738;2023-04-16T11:33:49;7.70;99.90
316;DHT22;14128;48.686;9.738;2023-04-16T11:36:16;7.80;99.90
316;DHT22;14128;48.686;9.738;2023-04-16T11:38:43;7.80;99.90
316;DHT22;14128;48.686;9.738;2023-04-16T11:41:10;7.90;99.90
316;DHT22;14128;48.686;9.738;2023-04-16T11:43:37;8.00;99.90
316;DHT22;14128;48.686;9.738;2023-04-16T11:46:05;8.00;99.90
316;DHT22;14128;48.686;9.738;2023-04-16T11:48:49;7.90;99.90
316;DHT22;14128;48.686;9.738;2023-04-16T11:51:17;7.90;99.90
316;DHT22;14128;48.686;9.738;2023-04-16T11:53:50;7.80;99.90
316;DHT22;14128;48.686;9.738;2023-04-16T11:56:24;7.90;99.90
316;DHT22;14128;48.686;9.738;2023-04-16T11:59:06;7.90;99.90
316;DHT22;14128;48.686;9.738;2023-04-16T12:01:34;7.80;99.90
316;DHT22;14128;48.686;9.738;2023-04-16T12:04:03;7.80;99.90
316;DHT22;14128;48.686;9.738;2023-04-16T12:06:30;7.70;99.90
316;DHT22;14128;48.686;9.738;2023-04-16T12:08:57;7.70;99.90
316;DHT22;14128;48.686;9.738;2023-04-16T12:11:37;7.80;99.90
316;DHT22;14128;48.686;9.738;2023-04-16T12:14:08;7.80;99.90
316;DHT22;14128;48.686;9.738;2023-04-16T12:16:35;7.80;99.90
316;DHT22;14128;48.686;9.738;2023-04-16T12:19:03;7.80;99.90
316;DHT22;14128;48.686;9.738;2023-04-16T12:21:41;7.90;99.90
316;DHT22;14128;48.686;9.738;2023-04-16T12:24:10;7.90;99.90
316;DHT22;14128;48.686;9.738;2023-04-16T12:26:42;8.00;99.90
316;DHT22;14128;48.686;9.738;2023-04-16T12:29:18;7.90;99.90
316;DHT22;14128;48.686;9.738;2023-04-16T12:31:45;8.00;99.90
316;DHT22;14128;48.686;9.738;2023-04-16T12:34:13;8.10;99.90
316;DHT22;14128;48.686;9.738;2023-04-16T12:36:41;8.10;99.90
316;DHT22;14128;48.686;9.738;2023-04-16T12:39:08;8.30;99.90
316;DHT22;14128;48.686;9.738;2023-04-16T12:41:37;8.30;99.90
316;DHT22;14128;48.686;9.738;2023-04-16T12:44:05;8.20;1.00
316;DHT22;14128;48.686;9.738;2023-04-16T12:46:34;8.20;99.90
316;DHT22;14128;48.686;9.738;2023-04-16T12:49:02;8.30;28.50
316;DHT22;14128;48.686;9.738;2023-04-16T12:51:30;8.30;99.90
316;DHT22;14128;48.686;9.738;2023-04-16T12:53:57;8.20;99.90
316;DHT22;14128;48.686;9.738;2023-04-16T12:56:24;8.10;1.00
316;DHT22;14128;48.686;9.738;2023-04-16T12:58:50;8.10;1.00
316;DHT22;14128;48.686;9.738;2023-04-16T13:01:18;8.10;99.90
316;DHT22;14128;48.686;9.738;2023-04-16T13:03:44;8.20;99.90
316;DHT22;14128;48.686;9.738;2023-04-16T13:06:12;8.10;99.90
316;DHT22;14128;48.686;9.738;2023-04-16T13:08:41;8.10;99.90
316;DHT22;14128;48.686;9.738;2023-04-16T13:11:08;8.10;99.90
316;DHT22;14128;48.686;9.738;2023-04-16T13:13:35;8.10;99.90
316;DHT22;14128;48.686;9.738;2023-04-16T13:16:02;8.20;99.90
316;DHT22;14128;48.686;9.738;2023-04-16T13:18:31;8.20;99.90
316;DHT22;14128;48.686;9.738;2023-04-16T13:20:58;8.20;99.90
316;DHT22;14128;48.686;9.738;2023-04-16T13:23:25;8.30;1.40
316;DHT22;14128;48.686;9.738;2023-04-16T13:25:53;8.20;1.40
316;DHT22;14128;48.686;9.738;2023-04-16T13:28:20;8.20;1.40
316;DHT22;14128;48.686;9.738;2023-04-16T13:30:47;8.30;1.40
316;DHT22;14128;48.686;9.738;2023-04-16T13:33:14;8.30;1.40
316;DHT22;14128;48.686;9.738;2023-04-16T13:35:41;8.30;1.40
316;DHT22;14128;48.686;9.738;2023-04-16T13:38:23;8.30;1.40
316;DHT22;14128;48.686;9.738;2023-04-16T13:40:50;8.30;1.40
316;DHT22;14128;48.686;9.738;2023-04-16T13:43:18;8.30;99.90
316;DHT22;14128;48.686;9.738;2023-04-16T13:45:46;8.40;1.40
316;DHT22;14128;48.686;9.738;2023-04-16T13:48:13;8.40;1.40
316;DHT22;14128;48.686;9.738;2023-04-16T13:50:40;8.30;1.40
316;DHT22;14128;48.686;9.738;2023-04-16T13:53:07;8.30;1.40
316;DHT22;14128;48.686;9.738;2023-04-16T13:55:34;8.30;1.40
316;DHT22;14128;48.686;9.738;2023-04-16T13:58:01;8.40;1.40
316;DHT22;14128;48.686;9.738;2023-04-16T14:00:30;8.40;1.40
316;DHT22;14128;48.686;9.738;2023-04-16T14:02:56;8.30;99.90
316;DHT22;14128;48.686;9.738;2023-04-16T14:05:23;8.30;1.40
316;DHT22;14128;48.686;9.738;2023-04-16T14:07:50;8.30;99.90
316;DHT22;14128;48.686;9.738;2023-04-16T14:10:17;8.30;99.90
316;DHT22;14128;48.686;9.738;2023-04-16T14:12:44;8.30;1.40
316;DHT22;14128;48.686;9.738;2023-04-16T14:15:11;8.30;1.40
316;DHT22;14128;48.686;9.738;2023-04-16T14:17:40;8.30;99.90
316;DHT22;14128;48.686;9.738;2023-04-16T14:20:09;8.30;1.40
316;DHT22;14128;48.686;9.738;2023-04-16T14:22:36;8.30;99.90
316;DHT22;14128;48.686;9.738;2023-04-16T14:25:03;8.20;1.40
316;DHT22;14128;48.686;9.738;2023-04-16T14:27:30;8.20;1.40
316;DHT22;14128;48.686;9.738;2023-04-16T14:29:57;8.20;1.40
316;DHT22;14128;48.686;9.738;2023-04-16T14:32:24;8.20;1.40
316;DHT22;14128;48.686;9.738;2023-04-16T14:34:52;8.30;1.40
316;DHT22;14128;48.686;9.738;2023-04-16T14:37:19;8.30;99.90
316;DHT22;14128;48.686;9.738;2023-04-16T14:39:46;8.40;1.40
316;DHT22;14128;48.686;9.738;2023-04-16T14:42:13;8.40;1.40
316;DHT22;14128;48.686;9.738;2023-04-16T14:44:39;8.30;99.90
316;DHT22;14128;48.686;9.738;2023-04-16T14:47:06;8.30;99.90
316;DHT22;14128;48.686;9.738;2023-04-16T14:49:34;8.30;1.40
316;DHT22;14128;48.686;9.738;2023-04-16T14:52:02;8.30;99.90
316;DHT22;14128;48.686;9.738;2023-04-16T14:54:30;8.40;1.40
316;DHT22;14128;48.686;9.738;2023-04-16T14:56:57;8.40;1.40
316;DHT22;14128;48.686;9.738;2023-04-16T14:59:24;8.40;1.40
316;DHT22;14128;48.686;9.738;2023-04-16T15:01:53;8.40;1.40
316;DHT22;14128;48.686;9.738;2023-04-16T15:04:20;8.40;1.40
316;DHT22;14128;48.686;9.738;2023-04-16T15:06:47;8.40;1.40
316;DHT22;14128;48.686;9.738;2023-04-16T15:09:16;8.40;1.40
316;DHT22;14128;48.686;9.738;2023-04-16T15:11:43;8.40;1.40
316;DHT22;14128;48.686;9.738;2023-04-16T15:14:10;8.50;1.40
316;DHT22;14128;48.686;9.738;2023-04-16T15:16:36;8.40;1.40
316;DHT22;14128;48.686;9.738;2023-04-16T15:19:03;8.40;1.40
316;DHT22;14128;48.686;9.738;2023-04-16T15:21:30;8.40;1.40
316;DHT22;14128;48.686;9.738;2023-04-16T15:23:57;8.40;1.40
316;DHT22;14128;48.686;9.738;2023-04-16T15:26:25;8.40;1.40
316;DHT22;14128;48.686;9.738;2023-04-16T15:28:52;8.40;1.40
316;DHT22;14128;48.686;9.738;2023-04-16T15:31:19;8.40;1.40
316;DHT22;14128;48.686;9.738;2023-04-16T15:33:46;8.40;1.40
316;DHT22;14128;48.686;9.738;2023-04-16T15:36:13;8.30;1.40
316;DHT22;14128;48.686;9.738;2023-04-16T15:38:40;8.30;1.40
316;DHT22;14128;48.686;9.738;2023-04-16T15:41:08;8.30;1.40
316;DHT22;14128;48.686;9.738;2023-04-16T15:43:36;8.30;1.40
316;DHT22;14128;48.686;9.738;2023-04-16T15:46:03;8.30;1.40
316;DHT22;14128;48.686;9.738;2023-04-16T15:48:31;8.20;1.40
316;DHT22;14128;48.686;9.738;2023-04-16T15:50:57;8.30;1.40
316;DHT22;14128;48.686;9.738;2023-04-16T15:53:24;8.30;1.40
316;DHT22;14128;48.686;9.738;2023-04-16T15:55:51;8.30;1.40
316;DHT22;14128;48.686;9.738;2023-04-16T15:58:18;8.30;1.40
316;DHT22;14128;48.686;9.738;2023-04-16T16:00:46;8.30;1.40
316;DHT22;14128;48.686;9.738;2023-04-16T16:03:14;8.30;1.40
316;DHT22;14128;48.686;9.738;2023-04-16T16:05:42;8.30;1.40
316;DHT22;14128;48.686;9.738;2023-04-16T16:08:09;8.30;1.40
316;DHT22;14128;48.686;9.738;2023-04-16T16:10:36;8.30;1.40
316;DHT22;14128;48.686;9.738;2023-04-16T16:13:03;8.30;1.40
316;DHT22;14128;48.686;9.738;2023-04-16T16:15:32;8.30;1.40
316;DHT22;14128;48.686;9.738;2023-04-16T16:18:00;8.30;1.40
316;DHT22;14128;48.686;9.738;2023-04-16T16:20:27;8.30;1.40
316;DHT22;14128;48.686;9.738;2023-04-16T16:22:54;8.20;1.40
316;DHT22;14128;48.686;9.738;2023-04-16T16:25:21;8.30;1.40
316;DHT22;14128;48.686;9.738;2023-04-16T16:27:48;8.30;1.40
316;DHT22;14128;48.686;9.738;2023-04-16T16:30:17;8.30;99.90
316;DHT22;14128;48.686;9.738;2023-04-16T16:32:44;8.30;1.40